Latest Weather Observations for Milingimbi

IDD60801

Issued at 11:21 am CST Sunday 28 November 2021 (issued every 10 minutes, with the page automatically refreshed every 10 minutes)

About weather observations | Map of weather stations | Latest weather observations for NT | Other Formats
Station Details ID: 014404 Name: MILINGIMBI AIRPORT Lat: -12.09 Lon: 134.89 Height: 15.0 m
Data from the previous 72 hours. | See also: Recent months at Milingimbi
Date/Time
CST
Temp
°C
App
Temp
°C
Dew
Point
°C
Rel
Hum
%
Delta-T
°C
Wind Press
QNH
hPa
Press
MSL
hPa
Rain since
9am
mm
Dir  Spd
km/h
Gust
km/h
Spd
kts
Gust
kts
28/11:00am 33.8 33.3 13.8 30 12.2 E 9 15 5 8 1009.9 1009.8 0.0
28/10:30am 33.7 34.4 17.0 37 10.7 E 9 15 5 8 1010.0 1009.9 0.0
28/10:00am 32.8 33.5 17.0 38 10.1 E 9 15 5 8 1010.0 1009.9 0.0
28/09:30am 32.8 34.8 20.0 47 8.5 ESE 9 13 5 7 1010.1 1010.0 0.0
28/09:00am 30.9 33.7 20.8 55 6.7 NNE 7 15 4 8 1010.1 1010.0 0.0
28/08:30am 30.8 35.5 24.0 67 4.7 SE 6 9 3 5 1010.0 1009.9 0.0
28/08:00am 29.3 33.7 23.5 71 4.0 SE 6 9 3 5 1009.8 1009.7 0.0
28/07:30am 27.3 31.1 23.5 80 2.6 S 9 11 5 6 1009.7 1009.6 0.0
28/07:00am 26.1 30.4 23.6 86 1.7 SSW 7 13 4 7 1009.6 1009.5 0.0
28/06:30am 25.0 29.5 23.6 92 1.0 SSE 6 7 3 4 1009.0 1008.9 0.0
28/06:00am 24.7 29.0 23.3 92 1.0 S 6 9 3 5 1008.4 1008.3 0.0
28/05:30am 25.1 30.8 23.7 92 1.0 CALM 0 6 0 3 1008.2 1008.1 0.0
28/05:00am 25.4 30.0 23.8 91 1.1 SSW 6 9 3 5 1008.0 1007.9 0.0
28/04:30am 25.6 31.3 23.8 90 1.2 CALM 0 0 0 0 1007.8 1007.7 0.0
28/04:00am 26.0 31.8 24.0 89 1.4 CALM 0 0 0 0 1007.5 1007.4 0.0
28/03:30am 26.1 30.9 24.1 89 1.4 SSE 6 7 3 4 1007.5 1007.4 0.0
28/03:00am 25.8 31.6 24.0 90 1.2 CALM 0 0 0 0 1007.6 1007.5 0.0
28/02:30am 25.7 31.4 23.7 89 1.4 CALM 0 0 0 0 1007.4 1007.3 0.0
28/02:00am 25.8 31.2 23.8 89 1.4 SSE 2 7 1 4 1007.6 1007.5 0.0
28/01:30am 25.7 30.6 23.6 88 1.4 SSE 4 7 2 4 1008.0 1007.9 0.0
28/01:00am 26.0 30.3 23.7 87 1.6 S 7 11 4 6 1008.4 1008.3 0.0
28/12:30am 25.8 30.3 23.7 88 1.4 SSE 6 7 3 4 1008.5 1008.4 0.0
28/12:00am 25.6 29.9 23.3 87 1.6 SSE 6 7 3 4 1008.7 1008.6 0.0
 
Date/Time
CST
Temp
°C
App
Temp
°C
Dew
Point
°C
Rel
Hum
%
Delta-T
°C
Wind Press
QNH
hPa
Press
MSL
hPa
Rain since
9am
mm
Dir  Spd
km/h
Gust
km/h
Spd
kts
Gust
kts
27/11:30pm 25.6 29.9 23.3 87 1.6 SSE 6 7 3 4 1009.1 1009.0 0.0
27/11:00pm 25.6 30.0 23.8 90 1.2 S 7 9 4 5 1009.2 1009.1 0.0
27/10:30pm 25.8 30.4 23.8 89 1.4 SSE 6 9 3 5 1009.2 1009.1 0.0
27/10:00pm 25.9 31.3 23.2 85 1.8 CALM 0 6 0 3 1009.1 1009.0 0.0
27/09:30pm 26.0 30.3 22.7 82 2.2 SSW 4 7 2 4 1008.9 1008.8 0.0
27/09:00pm 25.9 31.0 22.6 82 2.2 CALM 0 7 0 4 1008.7 1008.6 0.0
27/08:30pm 25.9 31.2 23.0 84 2.0 CALM 0 0 0 0 1008.5 1008.4 0.0
27/08:00pm 26.2 31.6 23.3 84 2.0 CALM 0 0 0 0 1008.5 1008.4 0.0
27/07:30pm 26.4 31.6 22.9 81 2.4 CALM 0 6 0 3 1008.3 1008.2 0.0
27/07:00pm 26.6 30.4 22.7 79 2.6 SSW 7 13 4 7 1008.3 1008.2 0.0
27/06:30pm 27.7 31.9 21.7 70 4.0 SSW 2 7 1 4 1007.6 1007.5 0.0
27/06:00pm 28.1 31.6 21.9 69 4.2 NW 6 7 3 4 1007.3 1007.2 0.0
27/05:30pm 27.9 32.1 21.7 69 4.2 SW 2 7 1 4 1007.1 1007.0 0.0
27/05:00pm 27.7 29.6 20.5 65 4.7 SSE 11 17 6 9 1007.3 1007.2 0.0
27/04:30pm 29.2 31.3 20.9 61 5.5 SE 11 17 6 9 1007.0 1006.9 0.0
27/04:00pm 29.4 30.4 21.1 61 5.5 ESE 17 26 9 14 1007.2 1007.1 0.0
27/03:30pm 30.6 34.4 23.5 66 4.9 N 9 15 5 8 1006.7 1006.6 0.0
27/03:00pm 30.5 33.8 23.2 65 5.0 N 11 15 6 8 1006.8 1006.7 0.0
27/02:30pm 31.3 34.9 23.1 61 5.7 N 9 19 5 10 1006.9 1006.8 0.0
27/02:00pm 30.1 33.9 23.5 67 4.6 N 9 15 5 8 1007.2 1007.1 0.0
27/01:37pm 30.3 35.0 24.0 69 4.4 NE 6 11 3 6 1007.7 1007.6 0.0
27/01:30pm 30.2 34.4 23.4 67 4.7 ENE 7 11 4 6 1007.9 1007.8 0.0
27/01:11pm 31.0 34.8 23.4 64 5.2 ESE 9 17 5 9 1008.0 1007.9 0.0
27/01:10pm 31.1 34.8 23.2 63 5.4 ESE 9 17 5 9 1008.0 1007.9 0.0
27/01:00pm 31.3 34.4 22.9 61 5.8 ESE 11 17 6 9 1008.0 1007.9 0.0
27/12:42pm 32.2 35.5 23.2 59 6.2 ESE 11 17 6 9 1008.1 1008.0 0.0
27/12:30pm 32.6 35.8 23.0 57 6.6 E 11 15 6 8 1008.0 1007.9 0.0
27/12:00pm 32.7 36.2 22.8 56 6.8 NNE 9 17 5 9 1008.5 1008.4 0.0
27/11:30am 31.7 35.5 23.5 62 5.7 NNE 9 17 5 9 1008.9 1008.8 0.0
27/11:00am 31.5 35.8 23.3 61 5.7 WSW 6 9 3 5 1009.4 1009.3 0.0
27/10:30am 30.7 34.4 22.6 62 5.5 WSW 7 13 4 7 1010.0 1009.9 0.0
27/10:00am 31.0 34.9 22.9 62 5.6 W 7 11 4 6 1010.0 1009.9 0.0
27/09:30am 30.4 34.9 23.6 67 4.7 SW 6 9 3 5 1010.2 1010.1 0.0
27/09:00am 29.0 33.0 23.7 73 3.7 SSE 9 11 5 6 1010.3 1010.2 10.8
27/08:30am 27.8 31.0 23.0 75 3.3 SSE 11 17 6 9 1009.9 1009.8 10.8
27/08:00am 26.4 30.4 23.7 85 1.9 SSE 9 13 5 7 1010.0 1009.9 10.8
27/07:30am 25.6 29.6 23.7 89 1.3 S 9 15 5 8 1009.8 1009.7 10.8
27/07:00am 25.1 28.9 23.5 91 1.1 S 9 15 5 8 1009.8 1009.7 10.8
27/06:30am 24.9 29.4 23.9 94 0.7 S 7 13 4 7 1009.3 1009.2 10.8
27/06:00am 24.8 28.8 23.8 94 0.7 SSE 9 15 5 8 1008.7 1008.6 10.8
27/05:30am 24.8 28.8 23.8 94 0.7 SSE 9 13 5 7 1008.1 1008.0 10.8
27/05:00am 24.9 29.4 23.9 94 0.7 S 7 11 4 6 1008.0 1007.9 10.8
27/04:30am 25.0 29.8 24.1 95 0.6 S 6 7 3 4 1007.8 1007.7 10.8
27/04:00am 24.9 29.4 23.9 94 0.7 SSE 7 9 4 5 1007.5 1007.4 10.8
27/03:30am 24.8 29.4 23.8 94 0.7 SSW 6 9 3 5 1007.2 1007.1 10.8
27/03:00am 24.7 29.5 23.5 93 0.8 SSW 4 6 2 3 1007.2 1007.1 10.8
27/02:30am 24.7 28.9 23.5 93 0.8 S 7 11 4 6 1007.3 1007.2 10.8
27/02:00am 24.7 28.7 23.7 94 0.7 SSW 9 13 5 7 1007.4 1007.3 10.8
27/01:30am 24.7 28.9 23.5 93 0.8 SSW 7 9 4 5 1007.4 1007.3 10.8
27/01:00am 24.7 28.8 23.3 92 1.0 SSW 7 9 4 5 1008.0 1007.9 10.8
27/12:30am 24.9 29.0 23.9 94 0.7 S 9 13 5 7 1008.0 1007.9 10.8
27/12:00am 24.9 29.0 23.9 94 0.7 SSW 9 13 5 7 1008.2 1008.1 10.8
 
Date/Time
CST
Temp
°C
App
Temp
°C
Dew
Point
°C
Rel
Hum
%
Delta-T
°C
Wind Press
QNH
hPa
Press
MSL
hPa
Rain since
9am
mm
Dir  Spd
km/h
Gust
km/h
Spd
kts
Gust
kts
26/11:30pm 25.1 29.9 24.1 94 0.7 S 6 9 3 5 1008.7 1008.6 10.8
26/11:00pm 25.3 29.9 24.1 93 0.8 S 7 11 4 6 1009.1 1009.0 10.6
26/10:30pm 25.7 30.1 24.5 93 0.8 SSW 9 11 5 6 1009.5 1009.4 10.6
26/10:00pm 26.4 32.1 24.4 89 1.4 ESE 2 7 1 4 1009.3 1009.2 10.6
26/09:30pm 26.2 30.8 24.1 88 1.4 E 7 11 4 6 1009.2 1009.1 10.6
26/09:00pm 26.2 30.4 24.1 88 1.4 E 9 13 5 7 1009.3 1009.2 10.6
26/08:30pm 26.0 30.6 24.2 90 1.2 ESE 7 11 4 6 1009.0 1008.9 10.4
26/08:00pm 25.9 29.6 23.9 89 1.4 ENE 11 15 6 8 1008.3 1008.2 10.4
26/07:30pm 25.7 30.3 24.1 91 1.1 E 7 9 4 5 1008.3 1008.2 10.4
26/07:00pm 25.5 30.0 23.9 91 1.1 E 7 11 4 6 1008.2 1008.1 10.2
26/06:30pm 25.2 29.1 23.6 91 1.1 E 9 17 5 9 1008.0 1007.9 9.6
26/06:00pm 25.2 29.5 24.2 94 0.7 SE 9 13 5 7 1008.2 1008.1 9.0
26/05:30pm 24.3 28.1 22.7 91 1.1 E 7 15 4 8 1007.6 1007.5 8.2
26/05:00pm 24.3 27.2 22.4 89 1.3 SE 11 17 6 9 1007.3 1007.2 7.2
26/04:30pm 25.4 27.5 23.1 87 1.6 SSE 17 20 9 11 1007.7 1007.6 5.0
26/04:00pm 26.0 27.9 23.7 87 1.6 SSE 20 33 11 18 1006.7 1006.6 4.4
26/03:30pm 30.9 34.4 22.8 62 5.6 NNE 9 17 5 9 1005.7 1005.5 4.4
26/03:00pm 32.3 35.4 23.5 59 6.1 NNW 13 26 7 14 1005.5 1005.3 4.4
26/02:30pm 32.4 35.2 23.6 59 6.1 N 15 26 8 14 1005.6 1005.4 4.4
26/02:00pm 31.7 35.1 24.0 63 5.4 N 13 20 7 11 1005.7 1005.5 4.4
26/01:30pm 31.7 34.2 23.2 60 5.9 N 15 24 8 13 1006.1 1006.0 4.4
26/01:00pm 32.8 36.7 24.8 62 5.6 N 13 24 7 13 1006.4 1006.3 4.4
26/12:30pm 32.3 37.3 25.4 67 4.9 NNW 9 19 5 10 1007.0 1006.9 4.4
26/12:00pm 30.6 36.2 26.3 78 3.1 WSW 9 13 5 7 1007.6 1007.5 4.4
26/11:30am 28.2 33.6 26.0 88 1.6 NW 9 11 5 6 1007.8 1007.7 4.4
26/11:00am 29.5 33.5 23.7 71 4.0 SSW 9 15 5 8 1008.3 1008.2 0.0
26/10:30am 31.1 34.6 23.5 64 5.3 NNE 11 20 6 11 1008.6 1008.5 0.0
26/10:00am 32.6 35.6 23.3 58 6.4 N 13 20 7 11 1008.6 1008.5 0.0
26/09:30am 30.7 34.6 23.6 66 4.9 N 9 15 5 8 1008.9 1008.8 0.0
26/09:00am 30.8 33.5 22.9 62 5.4 N 13 19 7 10 1008.8 1008.7 0.0
26/08:30am 31.5 35.5 23.1 61 5.8 NNW 7 13 4 7 1008.7 1008.6 0.0
26/08:00am 31.3 35.9 23.1 61 5.6 WNW 4 11 2 6 1008.4 1008.3 0.0
26/07:30am 29.5 34.0 23.7 71 4.0 SSE 6 9 3 5 1008.3 1008.2 0.0
26/07:00am 28.3 32.3 23.7 76 3.2 S 9 11 5 6 1008.2 1008.1 0.0
26/06:30am 27.4 32.4 24.5 84 2.0 SSW 6 9 3 5 1007.7 1007.6 0.0
26/06:00am 26.9 33.0 24.4 86 1.7 CALM 0 0 0 0 1007.3 1007.2 0.0
26/05:30am 26.9 33.0 24.4 86 1.7 CALM 0 0 0 0 1006.9 1006.8 0.0
26/05:00am 26.9 33.0 24.5 87 1.7 CALM 0 0 0 0 1006.5 1006.4 0.0
26/04:30am 27.1 33.2 24.4 85 1.9 CALM 0 0 0 0 1006.5 1006.4 0.0
26/04:00am 27.8 33.8 24.2 81 2.5 CALM 0 0 0 0 1006.4 1006.3 0.0
26/03:30am 28.0 34.1 24.4 81 2.5 CALM 0 0 0 0 1006.4 1006.3 0.0
26/03:00am 28.3 34.4 24.5 80 2.6 CALM 0 0 0 0 1006.5 1006.4 0.0
26/02:30am 28.8 34.0 24.8 79 2.8 WSW 6 7 3 4 1006.8 1006.7 0.0
26/02:00am 28.3 34.4 24.5 80 2.6 CALM 0 0 0 0 1006.8 1006.7 0.0
26/01:30am 28.1 34.1 24.3 80 2.6 CALM 0 0 0 0 1007.0 1006.9 0.0
26/01:00am 27.9 33.9 24.3 81 2.5 CALM 0 0 0 0 1007.1 1007.0 0.0
26/12:30am 27.6 33.6 24.2 82 2.4 CALM 0 0 0 0 1007.5 1007.4 0.0
26/12:00am 27.9 33.9 24.3 81 2.5 CALM 0 0 0 0 1007.6 1007.5 0.0
 
Date/Time
CST
Temp
°C
App
Temp
°C
Dew
Point
°C
Rel
Hum
%
Delta-T
°C
Wind Press
QNH
hPa
Press
MSL
hPa
Rain since
9am
mm
Dir  Spd
km/h
Gust
km/h
Spd
kts
Gust
kts
25/11:30pm 28.0 34.0 24.2 80 2.6 CALM 0 0 0 0 1007.7 1007.6 0.0
25/11:00pm 28.0 33.1 24.0 79 2.8 NNW 4 7 2 4 1007.6 1007.5 0.0
25/10:30pm 28.3 34.2 24.1 78 2.9 CALM 0 0 0 0 1007.6 1007.5 0.0
25/10:00pm 28.6 34.6 24.2 77 3.1 CALM 0 0 0 0 1007.6 1007.5 0.0
25/09:30pm 28.9 34.9 24.2 76 3.3 CALM 0 4 0 2 1007.3 1007.2 0.0
25/09:00pm 29.2 34.0 24.1 74 3.5 NW 6 7 3 4 1007.2 1007.1 0.0
25/08:30pm 29.3 35.0 23.7 72 3.9 CALM 0 6 0 3 1007.0 1006.9 0.0
25/08:00pm 29.7 34.0 23.6 69 4.2 WSW 7 13 4 7 1007.0 1006.9 0.0
25/07:30pm 29.8 34.0 23.5 69 4.4 NW 7 11 4 6 1006.9 1006.8 0.0
25/07:00pm 29.9 33.6 23.3 67 4.5 NW 9 15 5 8 1006.6 1006.5 0.0
25/06:30pm 30.4 34.4 23.1 65 5.0 NNW 7 15 4 8 1006.3 1006.2 0.0
25/06:00pm 30.7 33.4 22.8 62 5.4 NNW 13 17 7 9 1005.9 1005.8 0.0
25/05:30pm 31.4 33.7 22.7 60 6.0 NNW 15 20 8 11 1005.3 1005.1 0.0
25/05:00pm 31.9 34.3 22.3 56 6.5 N 13 22 7 12 1005.5 1005.3 0.0
25/04:30pm 32.1 34.0 22.8 58 6.4 N 17 26 9 14 1005.1 1004.9 0.0
25/04:00pm 31.9 33.9 22.9 59 6.2 N 17 32 9 17 1005.0 1004.8 0.0
25/03:30pm 33.2 35.2 22.9 54 7.1 NNW 17 32 9 17 1005.3 1005.1 0.0
25/03:00pm 33.2 35.4 23.2 55 6.9 N 17 28 9 15 1005.6 1005.4 0.0
25/02:30pm 32.9 35.3 23.0 56 6.8 N 15 28 8 15 1005.8 1005.7 0.0
25/02:00pm 33.2 35.0 22.6 53 7.3 N 17 26 9 14 1006.0 1005.9 0.0
25/01:30pm 33.2 36.4 24.4 60 6.2 N 15 26 8 14 1006.3 1006.2 0.0
25/01:00pm 32.3 35.6 23.8 61 5.9 NNW 13 26 7 14 1006.6 1006.5 0.0
25/12:30pm 33.4 36.2 24.3 59 6.4 N 17 26 9 14 1006.8 1006.7 0.0
25/12:00pm 33.1 35.9 23.7 57 6.6 N 15 24 8 13 1007.3 1007.2 0.0
25/11:30am 32.4 34.9 23.1 58 6.4 NNW 15 24 8 13 1007.7 1007.6 0.0

Other formats

Comma delimited format used in spreadsheet applications
http://www.bom.gov.au/fwo/IDD60801/IDD60801.94140.axf

JavaScript Object Notation format (JSON) in row-major order
http://www.bom.gov.au/fwo/IDD60801/IDD60801.94140.json

Data quality

Most of these data are generated automatically and are frequently updated. Quality checks on data are not normally performed. It is possible for incorrect values to appear. Refer to information at About Latest Weather Observations and please check the disclaimer before using these data.